首页
METAR-TAF:

METAR-TAF

机场 :

Grove, 奧克拉荷馬州, 美国

纬度: 36-36-19N, 经度: 094-44-19W, 海拔: 254米

当前天气观测

该预报发布于16分钟前的00:15 UTC
风速13节,风向北转西北,有时为17节阵风
温度 1°C
湿度 64%
气压 1018 hPa
能見度: 16.1公里
天空无云

METAR: KGMJ 100015Z AUTO 33013G17KT 10SM CLR 01/M05 A3006 RMK AO2

时间: 18:31 (00:31 UTC)


TAF: 丢失

超过4000个机场的气象观测和天气预报(METAR&TAF报告)。

可查询的气象台以黄色和红色小点在地图上表示。

将鼠标移到小点上方,可查看气象台名称。

然后点击查看天气观测和预报。

如需切换地图:点击带黑十字的绿色按钮放大地图;点击带横线的绿色按钮缩小地图;或者点击绿色箭头查看邻近地区的地图。


METAR-TAF: